sensor_id;sensor_type;location;lat;lon;timestamp;P1;durP1;ratioP1;P2;durP2;ratioP2
21705;SDS011;11014;53.076;18.208;2022-08-26T00:01:24;17.00;;;8.80;;
21705;SDS011;11014;53.076;18.208;2022-08-26T00:03:56;13.38;;;9.00;;
21705;SDS011;11014;53.076;18.208;2022-08-26T00:06:25;13.48;;;8.73;;
21705;SDS011;11014;53.076;18.208;2022-08-26T00:08:54;15.50;;;9.20;;
21705;SDS011;11014;53.076;18.208;2022-08-26T00:11:23;12.75;;;8.27;;
21705;SDS011;11014;53.076;18.208;2022-08-26T00:13:55;11.15;;;8.48;;
21705;SDS011;11014;53.076;18.208;2022-08-26T00:16:25;11.35;;;8.57;;
21705;SDS011;11014;53.076;18.208;2022-08-26T00:18:55;10.85;;;7.57;;
21705;SDS011;11014;53.076;18.208;2022-08-26T00:21:23;12.88;;;8.75;;
21705;SDS011;11014;53.076;18.208;2022-08-26T00:23:51;14.90;;;9.73;;
21705;SDS011;11014;53.076;18.208;2022-08-26T00:26:20;14.00;;;8.25;;
21705;SDS011;11014;53.076;18.208;2022-08-26T00:28:48;19.98;;;10.32;;
21705;SDS011;11014;53.076;18.208;2022-08-26T00:31:17;11.20;;;9.15;;
21705;SDS011;11014;53.076;18.208;2022-08-26T00:33:46;16.23;;;9.40;;
21705;SDS011;11014;53.076;18.208;2022-08-26T00:36:19;17.23;;;8.88;;
21705;SDS011;11014;53.076;18.208;2022-08-26T00:38:48;14.18;;;8.90;;
21705;SDS011;11014;53.076;18.208;2022-08-26T00:41:17;13.15;;;8.13;;
21705;SDS011;11014;53.076;18.208;2022-08-26T00:43:46;14.50;;;9.25;;
21705;SDS011;11014;53.076;18.208;2022-08-26T00:46:18;16.52;;;8.93;;
21705;SDS011;11014;53.076;18.208;2022-08-26T00:48:51;17.30;;;9.75;;
21705;SDS011;11014;53.076;18.208;2022-08-26T00:51:25;12.68;;;9.18;;
21705;SDS011;11014;53.076;18.208;2022-08-26T00:53:58;12.20;;;8.85;;
21705;SDS011;11014;53.076;18.208;2022-08-26T00:56:36;11.57;;;8.13;;
21705;SDS011;11014;53.076;18.208;2022-08-26T00:59:10;12.95;;;8.95;;
21705;SDS011;11014;53.076;18.208;2022-08-26T01:01:41;15.18;;;8.75;;
21705;SDS011;11014;53.076;18.208;2022-08-26T01:04:14;11.95;;;7.90;;
21705;SDS011;11014;53.076;18.208;2022-08-26T01:06:48;10.35;;;7.90;;
21705;SDS011;11014;53.076;18.208;2022-08-26T01:09:20;19.42;;;9.77;;
21705;SDS011;11014;53.076;18.208;2022-08-26T01:11:50;14.95;;;9.38;;
21705;SDS011;11014;53.076;18.208;2022-08-26T01:14:22;12.40;;;8.68;;
21705;SDS011;11014;53.076;18.208;2022-08-26T01:16:53;12.02;;;8.70;;
21705;SDS011;11014;53.076;18.208;2022-08-26T01:19:24;13.50;;;8.40;;
21705;SDS011;11014;53.076;18.208;2022-08-26T01:21:58;8.85;;;7.70;;
21705;SDS011;11014;53.076;18.208;2022-08-26T01:24:31;10.55;;;8.57;;
21705;SDS011;11014;53.076;18.208;2022-08-26T01:27:01;12.52;;;8.32;;
21705;SDS011;11014;53.076;18.208;2022-08-26T01:29:32;13.38;;;8.45;;
21705;SDS011;11014;53.076;18.208;2022-08-26T01:32:03;11.55;;;8.85;;
21705;SDS011;11014;53.076;18.208;2022-08-26T01:34:36;16.33;;;9.32;;
21705;SDS011;11014;53.076;18.208;2022-08-26T01:37:09;13.93;;;8.82;;
21705;SDS011;11014;53.076;18.208;2022-08-26T01:39:43;13.40;;;9.00;;
21705;SDS011;11014;53.076;18.208;2022-08-26T01:42:15;12.52;;;8.43;;
21705;SDS011;11014;53.076;18.208;2022-08-26T01:47:23;10.77;;;8.82;;
21705;SDS011;11014;53.076;18.208;2022-08-26T01:49:53;14.35;;;8.57;;
21705;SDS011;11014;53.076;18.208;2022-08-26T01:52:25;13.88;;;9.20;;
21705;SDS011;11014;53.076;18.208;2022-08-26T01:54:55;12.18;;;8.20;;
21705;SDS011;11014;53.076;18.208;2022-08-26T01:57:26;10.95;;;8.32;;
21705;SDS011;11014;53.076;18.208;2022-08-26T01:59:56;12.77;;;8.23;;
21705;SDS011;11014;53.076;18.208;2022-08-26T02:02:28;13.18;;;8.35;;
21705;SDS011;11014;53.076;18.208;2022-08-26T02:04:57;9.65;;;8.15;;
21705;SDS011;11014;53.076;18.208;2022-08-26T02:07:28;14.35;;;8.18;;
21705;SDS011;11014;53.076;18.208;2022-08-26T02:12:28;12.02;;;8.68;;
21705;SDS011;11014;53.076;18.208;2022-08-26T02:14:58;13.30;;;8.82;;
21705;SDS011;11014;53.076;18.208;2022-08-26T02:17:34;12.65;;;9.18;;
21705;SDS011;11014;53.076;18.208;2022-08-26T02:20:06;12.45;;;8.65;;
21705;SDS011;11014;53.076;18.208;2022-08-26T02:22:40;9.88;;;8.48;;
21705;SDS011;11014;53.076;18.208;2022-08-26T02:25:20;11.88;;;8.40;;
21705;SDS011;11014;53.076;18.208;2022-08-26T02:27:52;11.43;;;8.33;;
21705;SDS011;11014;53.076;18.208;2022-08-26T02:30:24;13.23;;;8.30;;
21705;SDS011;11014;53.076;18.208;2022-08-26T02:32:59;15.07;;;8.02;;
21705;SDS011;11014;53.076;18.208;2022-08-26T02:35:31;9.20;;;7.93;;
21705;SDS011;11014;53.076;18.208;2022-08-26T02:38:02;11.40;;;8.85;;
21705;SDS011;11014;53.076;18.208;2022-08-26T02:40:38;10.52;;;8.15;;
21705;SDS011;11014;53.076;18.208;2022-08-26T02:45:37;11.93;;;8.60;;
21705;SDS011;11014;53.076;18.208;2022-08-26T02:48:08;10.57;;;8.70;;
21705;SDS011;11014;53.076;18.208;2022-08-26T02:50:40;12.73;;;8.65;;
21705;SDS011;11014;53.076;18.208;2022-08-26T02:53:09;11.18;;;7.97;;
21705;SDS011;11014;53.076;18.208;2022-08-26T02:55:39;9.98;;;8.18;;
21705;SDS011;11014;53.076;18.208;2022-08-26T02:58:09;11.07;;;8.00;;
21705;SDS011;11014;53.076;18.208;2022-08-26T03:00:38;9.50;;;8.18;;
21705;SDS011;11014;53.076;18.208;2022-08-26T03:05:49;10.85;;;8.32;;
21705;SDS011;11014;53.076;18.208;2022-08-26T03:08:18;13.93;;;8.50;;
21705;SDS011;11014;53.076;18.208;2022-08-26T03:10:47;10.35;;;8.15;;
21705;SDS011;11014;53.076;18.208;2022-08-26T03:13:16;8.68;;;7.78;;
21705;SDS011;11014;53.076;18.208;2022-08-26T03:15:45;12.00;;;8.77;;
21705;SDS011;11014;53.076;18.208;2022-08-26T03:18:14;10.05;;;8.10;;
21705;SDS011;11014;53.076;18.208;2022-08-26T03:20:43;9.13;;;7.63;;
21705;SDS011;11014;53.076;18.208;2022-08-26T03:23:12;8.77;;;7.68;;
21705;SDS011;11014;53.076;18.208;2022-08-26T03:25:41;8.63;;;7.22;;
21705;SDS011;11014;53.076;18.208;2022-08-26T03:28:09;9.48;;;7.88;;
21705;SDS011;11014;53.076;18.208;2022-08-26T03:30:37;13.68;;;7.85;;
21705;SDS011;11014;53.076;18.208;2022-08-26T03:33:12;11.45;;;7.90;;
21705;SDS011;11014;53.076;18.208;2022-08-26T03:35:42;10.20;;;7.40;;
21705;SDS011;11014;53.076;18.208;2022-08-26T03:38:12;9.63;;;7.53;;
21705;SDS011;11014;53.076;18.208;2022-08-26T03:40:41;9.07;;;7.90;;
21705;SDS011;11014;53.076;18.208;2022-08-26T03:43:10;12.00;;;8.35;;
21705;SDS011;11014;53.076;18.208;2022-08-26T03:45:40;11.68;;;8.30;;
21705;SDS011;11014;53.076;18.208;2022-08-26T03:48:09;9.00;;;7.50;;
21705;SDS011;11014;53.076;18.208;2022-08-26T03:50:38;9.75;;;8.10;;
21705;SDS011;11014;53.076;18.208;2022-08-26T03:53:07;10.07;;;7.32;;
21705;SDS011;11014;53.076;18.208;2022-08-26T03:55:40;12.52;;;9.13;;
21705;SDS011;11014;53.076;18.208;2022-08-26T03:58:10;11.45;;;8.82;;
21705;SDS011;11014;53.076;18.208;2022-08-26T04:00:38;13.18;;;8.43;;
21705;SDS011;11014;53.076;18.208;2022-08-26T04:03:07;13.65;;;10.38;;
21705;SDS011;11014;53.076;18.208;2022-08-26T04:05:37;11.60;;;9.10;;
21705;SDS011;11014;53.076;18.208;2022-08-26T04:08:05;10.57;;;8.68;;
21705;SDS011;11014;53.076;18.208;2022-08-26T04:10:35;9.95;;;8.32;;
21705;SDS011;11014;53.076;18.208;2022-08-26T04:13:05;12.68;;;9.02;;
21705;SDS011;11014;53.076;18.208;2022-08-26T04:15:33;10.63;;;8.10;;
21705;SDS011;11014;53.076;18.208;2022-08-26T04:18:02;10.38;;;8.07;;
21705;SDS011;11014;53.076;18.208;2022-08-26T04:20:30;11.20;;;8.07;;
21705;SDS011;11014;53.076;18.208;2022-08-26T04:22:59;13.63;;;8.27;;
21705;SDS011;11014;53.076;18.208;2022-08-26T04:25:27;10.30;;;8.35;;
21705;SDS011;11014;53.076;18.208;2022-08-26T04:27:55;11.20;;;8.43;;
21705;SDS011;11014;53.076;18.208;2022-08-26T04:30:24;10.18;;;8.48;;
21705;SDS011;11014;53.076;18.208;2022-08-26T04:32:52;11.02;;;8.35;;
21705;SDS011;11014;53.076;18.208;2022-08-26T04:35:21;11.23;;;9.40;;
21705;SDS011;11014;53.076;18.208;2022-08-26T04:37:53;10.48;;;7.63;;
21705;SDS011;11014;53.076;18.208;2022-08-26T04:40:22;10.52;;;8.05;;
21705;SDS011;11014;53.076;18.208;2022-08-26T04:42:52;8.70;;;7.80;;
21705;SDS011;11014;53.076;18.208;2022-08-26T04:45:22;9.82;;;7.85;;
21705;SDS011;11014;53.076;18.208;2022-08-26T04:47:52;9.13;;;7.60;;
21705;SDS011;11014;53.076;18.208;2022-08-26T04:50:23;10.00;;;7.43;;
21705;SDS011;11014;53.076;18.208;2022-08-26T04:52:53;8.60;;;7.32;;
21705;SDS011;11014;53.076;18.208;2022-08-26T04:55:22;13.18;;;8.13;;
21705;SDS011;11014;53.076;18.208;2022-08-26T04:58:06;12.50;;;7.45;;
21705;SDS011;11014;53.076;18.208;2022-08-26T05:00:37;11.57;;;6.95;;
21705;SDS011;11014;53.076;18.208;2022-08-26T05:03:06;8.77;;;7.60;;
21705;SDS011;11014;53.076;18.208;2022-08-26T05:05:38;9.18;;;7.38;;
21705;SDS011;11014;53.076;18.208;2022-08-26T05:08:09;8.40;;;7.10;;
21705;SDS011;11014;53.076;18.208;2022-08-26T05:10:39;8.27;;;6.93;;
21705;SDS011;11014;53.076;18.208;2022-08-26T05:13:11;9.68;;;7.70;;
21705;SDS011;11014;53.076;18.208;2022-08-26T05:15:43;11.05;;;7.35;;
21705;SDS011;11014;53.076;18.208;2022-08-26T05:18:12;11.68;;;7.18;;
21705;SDS011;11014;53.076;18.208;2022-08-26T05:20:44;9.55;;;7.70;;
21705;SDS011;11014;53.076;18.208;2022-08-26T05:23:15;8.23;;;6.97;;
21705;SDS011;11014;53.076;18.208;2022-08-26T05:25:45;8.68;;;7.20;;
21705;SDS011;11014;53.076;18.208;2022-08-26T05:28:16;9.80;;;7.25;;
21705;SDS011;11014;53.076;18.208;2022-08-26T05:30:46;9.82;;;7.38;;
21705;SDS011;11014;53.076;18.208;2022-08-26T05:33:16;9.85;;;7.22;;
21705;SDS011;11014;53.076;18.208;2022-08-26T05:35:46;10.43;;;7.32;;
21705;SDS011;11014;53.076;18.208;2022-08-26T05:38:17;8.88;;;6.85;;
21705;SDS011;11014;53.076;18.208;2022-08-26T05:40:48;11.57;;;7.13;;
21705;SDS011;11014;53.076;18.208;2022-08-26T05:43:19;9.07;;;6.93;;
21705;SDS011;11014;53.076;18.208;2022-08-26T05:45:49;10.18;;;7.28;;
21705;SDS011;11014;53.076;18.208;2022-08-26T05:48:18;8.10;;;6.95;;
21705;SDS011;11014;53.076;18.208;2022-08-26T05:50:51;9.70;;;6.47;;
21705;SDS011;11014;53.076;18.208;2022-08-26T05:53:21;8.35;;;7.20;;
21705;SDS011;11014;53.076;18.208;2022-08-26T05:55:53;8.82;;;7.03;;
21705;SDS011;11014;53.076;18.208;2022-08-26T05:58:25;12.15;;;7.32;;
21705;SDS011;11014;53.076;18.208;2022-08-26T06:00:55;7.28;;;6.57;;
21705;SDS011;11014;53.076;18.208;2022-08-26T06:03:31;9.15;;;6.82;;
21705;SDS011;11014;53.076;18.208;2022-08-26T06:06:04;9.82;;;6.82;;
21705;SDS011;11014;53.076;18.208;2022-08-26T06:08:34;9.70;;;7.13;;
21705;SDS011;11014;53.076;18.208;2022-08-26T06:11:04;9.30;;;6.90;;
21705;SDS011;11014;53.076;18.208;2022-08-26T06:13:45;9.02;;;6.45;;
21705;SDS011;11014;53.076;18.208;2022-08-26T06:16:15;7.90;;;7.00;;
21705;SDS011;11014;53.076;18.208;2022-08-26T06:18:46;8.10;;;7.17;;
21705;SDS011;11014;53.076;18.208;2022-08-26T06:23:50;8.15;;;6.65;;
21705;SDS011;11014;53.076;18.208;2022-08-26T06:26:45;7.78;;;6.53;;
21705;SDS011;11014;53.076;18.208;2022-08-26T06:29:19;9.23;;;6.57;;
21705;SDS011;11014;53.076;18.208;2022-08-26T06:31:52;7.68;;;6.63;;
21705;SDS011;11014;53.076;18.208;2022-08-26T06:34:23;7.63;;;6.82;;
21705;SDS011;11014;53.076;18.208;2022-08-26T06:36:57;9.07;;;6.30;;
21705;SDS011;11014;53.076;18.208;2022-08-26T06:39:29;9.77;;;6.97;;
21705;SDS011;11014;53.076;18.208;2022-08-26T06:41:59;9.55;;;6.45;;
21705;SDS011;11014;53.076;18.208;2022-08-26T06:44:29;7.15;;;6.45;;
21705;SDS011;11014;53.076;18.208;2022-08-26T06:46:59;7.43;;;6.50;;
21705;SDS011;11014;53.076;18.208;2022-08-26T06:49:27;7.78;;;6.68;;
21705;SDS011;11014;53.076;18.208;2022-08-26T06:51:56;9.63;;;6.93;;
21705;SDS011;11014;53.076;18.208;2022-08-26T06:54:27;7.28;;;6.32;;
21705;SDS011;11014;53.076;18.208;2022-08-26T06:56:58;8.02;;;6.65;;
21705;SDS011;11014;53.076;18.208;2022-08-26T06:59:28;8.57;;;6.55;;
21705;SDS011;11014;53.076;18.208;2022-08-26T07:01:58;8.63;;;6.50;;
21705;SDS011;11014;53.076;18.208;2022-08-26T07:04:26;8.05;;;6.57;;
21705;SDS011;11014;53.076;18.208;2022-08-26T07:06:56;7.28;;;6.47;;
21705;SDS011;11014;53.076;18.208;2022-08-26T07:09:26;7.53;;;6.72;;
21705;SDS011;11014;53.076;18.208;2022-08-26T07:11:57;9.15;;;6.57;;
21705;SDS011;11014;53.076;18.208;2022-08-26T07:14:26;8.55;;;6.60;;
21705;SDS011;11014;53.076;18.208;2022-08-26T07:16:54;7.15;;;6.45;;
21705;SDS011;11014;53.076;18.208;2022-08-26T07:19:23;7.60;;;6.13;;
21705;SDS011;11014;53.076;18.208;2022-08-26T07:21:59;8.13;;;6.20;;
21705;SDS011;11014;53.076;18.208;2022-08-26T07:24:31;8.38;;;6.10;;
21705;SDS011;11014;53.076;18.208;2022-08-26T07:27:03;6.78;;;6.07;;
21705;SDS011;11014;53.076;18.208;2022-08-26T07:29:36;7.00;;;6.32;;
21705;SDS011;11014;53.076;18.208;2022-08-26T07:32:07;7.40;;;6.30;;
21705;SDS011;11014;53.076;18.208;2022-08-26T07:34:37;7.70;;;5.95;;
21705;SDS011;11014;53.076;18.208;2022-08-26T07:37:12;10.43;;;6.70;;
21705;SDS011;11014;53.076;18.208;2022-08-26T07:39:41;7.43;;;6.40;;
21705;SDS011;11014;53.076;18.208;2022-08-26T07:42:11;9.07;;;6.55;;
21705;SDS011;11014;53.076;18.208;2022-08-26T07:44:45;6.45;;;5.75;;
21705;SDS011;11014;53.076;18.208;2022-08-26T07:47:14;7.43;;;6.45;;
21705;SDS011;11014;53.076;18.208;2022-08-26T07:49:55;8.30;;;6.57;;
21705;SDS011;11014;53.076;18.208;2022-08-26T07:52:25;7.30;;;6.05;;
21705;SDS011;11014;53.076;18.208;2022-08-26T07:54:56;7.80;;;5.70;;
21705;SDS011;11014;53.076;18.208;2022-08-26T07:57:26;7.03;;;6.00;;
21705;SDS011;11014;53.076;18.208;2022-08-26T07:59:55;6.22;;;5.63;;
21705;SDS011;11014;53.076;18.208;2022-08-26T08:02:25;9.07;;;6.03;;
21705;SDS011;11014;53.076;18.208;2022-08-26T08:04:55;6.50;;;5.47;;
21705;SDS011;11014;53.076;18.208;2022-08-26T08:07:26;6.53;;;5.90;;
21705;SDS011;11014;53.076;18.208;2022-08-26T08:10:13;6.70;;;6.10;;
21705;SDS011;11014;53.076;18.208;2022-08-26T08:12:45;7.43;;;5.88;;
21705;SDS011;11014;53.076;18.208;2022-08-26T08:15:15;6.68;;;5.97;;
21705;SDS011;11014;53.076;18.208;2022-08-26T08:17:46;8.50;;;6.32;;
21705;SDS011;11014;53.076;18.208;2022-08-26T08:22:47;6.50;;;5.88;;
21705;SDS011;11014;53.076;18.208;2022-08-26T08:25:19;6.72;;;6.03;;
21705;SDS011;11014;53.076;18.208;2022-08-26T08:27:48;7.05;;;5.93;;
21705;SDS011;11014;53.076;18.208;2022-08-26T08:30:18;7.32;;;6.35;;
21705;SDS011;11014;53.076;18.208;2022-08-26T08:32:50;7.07;;;5.90;;
21705;SDS011;11014;53.076;18.208;2022-08-26T08:35:19;6.85;;;5.80;;
21705;SDS011;11014;53.076;18.208;2022-08-26T08:37:49;6.80;;;6.10;;
21705;SDS011;11014;53.076;18.208;2022-08-26T08:40:22;6.47;;;5.82;;
21705;SDS011;11014;53.076;18.208;2022-08-26T08:45:34;6.68;;;5.60;;
21705;SDS011;11014;53.076;18.208;2022-08-26T08:48:12;7.00;;;6.18;;
21705;SDS011;11014;53.076;18.208;2022-08-26T08:50:56;6.07;;;5.57;;
21705;SDS011;11014;53.076;18.208;2022-08-26T08:53:34;6.85;;;5.93;;
21705;SDS011;11014;53.076;18.208;2022-08-26T09:01:52;6.43;;;5.80;;
21705;SDS011;11014;53.076;18.208;2022-08-26T09:07:35;7.47;;;5.65;;
21705;SDS011;11014;53.076;18.208;2022-08-26T09:10:18;6.40;;;5.80;;
21705;SDS011;11014;53.076;18.208;2022-08-26T09:12:51;8.85;;;5.80;;
21705;SDS011;11014;53.076;18.208;2022-08-26T09:15:32;6.45;;;5.45;;
21705;SDS011;11014;53.076;18.208;2022-08-26T09:18:10;7.28;;;5.90;;
21705;SDS011;11014;53.076;18.208;2022-08-26T09:20:45;6.70;;;6.00;;
21705;SDS011;11014;53.076;18.208;2022-08-26T09:23:22;6.97;;;5.88;;
21705;SDS011;11014;53.076;18.208;2022-08-26T09:25:53;6.70;;;5.70;;
21705;SDS011;11014;53.076;18.208;2022-08-26T09:28:24;8.63;;;6.30;;
21705;SDS011;11014;53.076;18.208;2022-08-26T09:31:00;6.47;;;5.80;;
21705;SDS011;11014;53.076;18.208;2022-08-26T09:33:47;7.40;;;5.78;;
21705;SDS011;11014;53.076;18.208;2022-08-26T09:36:32;6.28;;;5.35;;
21705;SDS011;11014;53.076;18.208;2022-08-26T09:39:42;6.45;;;5.60;;
21705;SDS011;11014;53.076;18.208;2022-08-26T09:42:06;7.07;;;5.80;;
21705;SDS011;11014;53.076;18.208;2022-08-26T09:47:28;7.30;;;5.57;;
21705;SDS011;11014;53.076;18.208;2022-08-26T09:50:18;5.97;;;5.30;;
21705;SDS011;11014;53.076;18.208;2022-08-26T09:55:45;6.97;;;5.32;;
21705;SDS011;11014;53.076;18.208;2022-08-26T09:58:30;6.60;;;5.82;;
21705;SDS011;11014;53.076;18.208;2022-08-26T10:01:02;8.15;;;5.70;;
21705;SDS011;11014;53.076;18.208;2022-08-26T10:04:04;6.55;;;5.82;;
21705;SDS011;11014;53.076;18.208;2022-08-26T10:06:54;9.27;;;5.90;;
21705;SDS011;11014;53.076;18.208;2022-08-26T10:09:25;7.15;;;5.70;;
21705;SDS011;11014;53.076;18.208;2022-08-26T10:11:59;9.63;;;5.80;;
21705;SDS011;11014;53.076;18.208;2022-08-26T10:14:36;9.45;;;5.47;;
21705;SDS011;11014;53.076;18.208;2022-08-26T10:17:23;6.70;;;5.70;;
21705;SDS011;11014;53.076;18.208;2022-08-26T10:19:57;6.22;;;5.65;;
21705;SDS011;11014;53.076;18.208;2022-08-26T10:22:45;7.18;;;5.60;;
21705;SDS011;11014;53.076;18.208;2022-08-26T10:25:28;7.78;;;5.97;;
21705;SDS011;11014;53.076;18.208;2022-08-26T10:30:51;6.38;;;5.60;;
21705;SDS011;11014;53.076;18.208;2022-08-26T10:33:26;12.65;;;6.40;;
21705;SDS011;11014;53.076;18.208;2022-08-26T10:39:50;15.52;;;7.38;;
21705;SDS011;11014;53.076;18.208;2022-08-26T10:42:36;14.93;;;7.57;;
21705;SDS011;11014;53.076;18.208;2022-08-26T10:45:11;14.95;;;7.43;;
21705;SDS011;11014;53.076;18.208;2022-08-26T10:47:52;11.93;;;6.80;;
21705;SDS011;11014;53.076;18.208;2022-08-26T10:50:26;12.75;;;7.65;;
21705;SDS011;11014;53.076;18.208;2022-08-26T10:59:27;13.48;;;6.72;;
21705;SDS011;11014;53.076;18.208;2022-08-26T11:02:19;9.02;;;6.78;;
21705;SDS011;11014;53.076;18.208;2022-08-26T11:04:57;10.13;;;6.72;;
21705;SDS011;11014;53.076;18.208;2022-08-26T11:07:31;11.68;;;6.20;;
21705;SDS011;11014;53.076;18.208;2022-08-26T11:10:08;12.32;;;6.35;;
21705;SDS011;11014;53.076;18.208;2022-08-26T11:15:55;9.68;;;6.28;;
21705;SDS011;11014;53.076;18.208;2022-08-26T11:18:11;12.40;;;6.50;;
21705;SDS011;11014;53.076;18.208;2022-08-26T11:30:05;12.10;;;6.45;;
21705;SDS011;11014;53.076;18.208;2022-08-26T11:32:55;12.48;;;6.75;;
21705;SDS011;11014;53.076;18.208;2022-08-26T11:37:58;11.20;;;6.45;;
21705;SDS011;11014;53.076;18.208;2022-08-26T11:40:56;16.27;;;6.57;;
21705;SDS011;11014;53.076;18.208;2022-08-26T11:43:33;11.93;;;6.72;;
21705;SDS011;11014;53.076;18.208;2022-08-26T11:46:06;13.80;;;6.88;;
21705;SDS011;11014;53.076;18.208;2022-08-26T11:48:38;12.25;;;6.50;;
21705;SDS011;11014;53.076;18.208;2022-08-26T11:53:39;10.27;;;6.18;;
21705;SDS011;11014;53.076;18.208;2022-08-26T11:56:23;9.73;;;6.22;;
21705;SDS011;11014;53.076;18.208;2022-08-26T11:58:59;8.95;;;5.40;;
21705;SDS011;11014;53.076;18.208;2022-08-26T12:01:31;11.57;;;6.05;;
21705;SDS011;11014;53.076;18.208;2022-08-26T12:04:03;7.75;;;6.18;;
21705;SDS011;11014;53.076;18.208;2022-08-26T12:06:35;10.82;;;6.40;;
21705;SDS011;11014;53.076;18.208;2022-08-26T12:09:22;8.38;;;5.80;;
21705;SDS011;11014;53.076;18.208;2022-08-26T12:14:42;10.10;;;5.70;;
21705;SDS011;11014;53.076;18.208;2022-08-26T12:17:12;7.93;;;5.35;;
21705;SDS011;11014;53.076;18.208;2022-08-26T12:19:43;10.15;;;5.72;;
21705;SDS011;11014;53.076;18.208;2022-08-26T12:22:23;10.00;;;5.70;;
21705;SDS011;11014;53.076;18.208;2022-08-26T12:24:52;9.40;;;5.80;;
21705;SDS011;11014;53.076;18.208;2022-08-26T12:27:28;9.73;;;5.65;;
21705;SDS011;11014;53.076;18.208;2022-08-26T12:30:03;8.90;;;5.70;;
21705;SDS011;11014;53.076;18.208;2022-08-26T12:32:47;10.60;;;6.32;;
21705;SDS011;11014;53.076;18.208;2022-08-26T12:35:25;8.73;;;5.40;;
21705;SDS011;11014;53.076;18.208;2022-08-26T12:37:56;9.70;;;5.82;;
21705;SDS011;11014;53.076;18.208;2022-08-26T12:45:37;10.77;;;5.63;;
21705;SDS011;11014;53.076;18.208;2022-08-26T12:48:31;10.93;;;5.50;;
21705;SDS011;11014;53.076;18.208;2022-08-26T12:51:00;7.38;;;5.63;;
21705;SDS011;11014;53.076;18.208;2022-08-26T12:53:31;9.20;;;5.80;;
21705;SDS011;11014;53.076;18.208;2022-08-26T12:56:03;11.05;;;5.72;;
21705;SDS011;11014;53.076;18.208;2022-08-26T12:58:58;9.80;;;5.57;;
21705;SDS011;11014;53.076;18.208;2022-08-26T13:01:41;10.48;;;5.53;;
21705;SDS011;11014;53.076;18.208;2022-08-26T13:09:54;9.07;;;5.55;;
21705;SDS011;11014;53.076;18.208;2022-08-26T13:12:29;10.27;;;5.43;;
21705;SDS011;11014;53.076;18.208;2022-08-26T13:15:00;9.48;;;4.97;;
21705;SDS011;11014;53.076;18.208;2022-08-26T13:17:30;9.27;;;5.40;;
21705;SDS011;11014;53.076;18.208;2022-08-26T13:19:59;10.32;;;5.28;;
21705;SDS011;11014;53.076;18.208;2022-08-26T13:22:31;8.77;;;5.38;;
21705;SDS011;11014;53.076;18.208;2022-08-26T13:25:00;10.00;;;5.65;;
21705;SDS011;11014;53.076;18.208;2022-08-26T13:27:29;7.43;;;5.20;;
21705;SDS011;11014;53.076;18.208;2022-08-26T13:29:58;7.55;;;5.13;;
21705;SDS011;11014;53.076;18.208;2022-08-26T13:32:29;9.90;;;5.07;;
21705;SDS011;11014;53.076;18.208;2022-08-26T13:34:58;10.40;;;5.20;;
21705;SDS011;11014;53.076;18.208;2022-08-26T13:37:32;9.68;;;5.05;;
21705;SDS011;11014;53.076;18.208;2022-08-26T13:40:05;10.00;;;5.18;;
21705;SDS011;11014;53.076;18.208;2022-08-26T13:42:34;7.95;;;5.45;;
21705;SDS011;11014;53.076;18.208;2022-08-26T13:45:03;8.55;;;4.60;;
21705;SDS011;11014;53.076;18.208;2022-08-26T13:47:32;10.93;;;5.60;;
21705;SDS011;11014;53.076;18.208;2022-08-26T13:50:00;8.55;;;4.90;;
21705;SDS011;11014;53.076;18.208;2022-08-26T13:52:29;7.43;;;5.13;;
21705;SDS011;11014;53.076;18.208;2022-08-26T13:54:58;6.57;;;4.70;;
21705;SDS011;11014;53.076;18.208;2022-08-26T13:57:27;7.80;;;4.35;;
21705;SDS011;11014;53.076;18.208;2022-08-26T13:59:57;9.18;;;5.18;;
21705;SDS011;11014;53.076;18.208;2022-08-26T14:02:35;10.63;;;4.90;;
21705;SDS011;11014;53.076;18.208;2022-08-26T14:05:05;7.80;;;4.70;;
21705;SDS011;11014;53.076;18.208;2022-08-26T14:07:34;7.60;;;4.90;;
21705;SDS011;11014;53.076;18.208;2022-08-26T14:10:03;6.80;;;4.70;;
21705;SDS011;11014;53.076;18.208;2022-08-26T14:12:32;9.43;;;4.93;;
21705;SDS011;11014;53.076;18.208;2022-08-26T14:18:03;5.75;;;4.53;;
21705;SDS011;11014;53.076;18.208;2022-08-26T14:20:35;7.43;;;4.28;;
21705;SDS011;11014;53.076;18.208;2022-08-26T14:23:05;8.63;;;4.80;;
21705;SDS011;11014;53.076;18.208;2022-08-26T14:26:10;7.50;;;4.22;;
21705;SDS011;11014;53.076;18.208;2022-08-26T14:28:58;6.55;;;4.55;;
21705;SDS011;11014;53.076;18.208;2022-08-26T14:31:28;10.23;;;4.65;;
21705;SDS011;11014;53.076;18.208;2022-08-26T14:34:00;11.48;;;4.00;;
21705;SDS011;11014;53.076;18.208;2022-08-26T14:36:31;7.90;;;3.97;;
21705;SDS011;11014;53.076;18.208;2022-08-26T14:39:04;12.82;;;4.38;;
21705;SDS011;11014;53.076;18.208;2022-08-26T14:41:37;8.23;;;4.30;;
21705;SDS011;11014;53.076;18.208;2022-08-26T14:44:23;8.07;;;4.25;;
21705;SDS011;11014;53.076;18.208;2022-08-26T14:46:55;11.45;;;4.45;;
21705;SDS011;11014;53.076;18.208;2022-08-26T14:49:24;9.45;;;4.30;;
21705;SDS011;11014;53.076;18.208;2022-08-26T14:51:54;10.63;;;4.20;;
21705;SDS011;11014;53.076;18.208;2022-08-26T14:54:23;11.77;;;4.38;;
21705;SDS011;11014;53.076;18.208;2022-08-26T14:56:53;12.63;;;4.63;;
21705;SDS011;11014;53.076;18.208;2022-08-26T14:59:30;11.90;;;4.63;;
21705;SDS011;11014;53.076;18.208;2022-08-26T15:02:07;7.88;;;4.32;;
21705;SDS011;11014;53.076;18.208;2022-08-26T15:04:44;8.60;;;4.10;;
21705;SDS011;11014;53.076;18.208;2022-08-26T15:07:13;8.32;;;4.50;;
21705;SDS011;11014;53.076;18.208;2022-08-26T15:09:45;7.80;;;4.40;;
21705;SDS011;11014;53.076;18.208;2022-08-26T15:12:14;8.75;;;4.40;;
21705;SDS011;11014;53.076;18.208;2022-08-26T15:14:42;12.18;;;4.13;;
21705;SDS011;11014;53.076;18.208;2022-08-26T15:17:24;8.32;;;4.20;;
21705;SDS011;11014;53.076;18.208;2022-08-26T15:19:53;9.32;;;4.40;;
21705;SDS011;11014;53.076;18.208;2022-08-26T15:27:25;9.25;;;4.47;;
21705;SDS011;11014;53.076;18.208;2022-08-26T15:29:53;8.73;;;3.90;;
21705;SDS011;11014;53.076;18.208;2022-08-26T15:32:29;8.40;;;4.13;;
21705;SDS011;11014;53.076;18.208;2022-08-26T15:34:58;12.05;;;4.82;;
21705;SDS011;11014;53.076;18.208;2022-08-26T15:37:26;8.38;;;5.18;;
21705;SDS011;11014;53.076;18.208;2022-08-26T15:39:55;7.53;;;4.53;;
21705;SDS011;11014;53.076;18.208;2022-08-26T15:42:23;7.75;;;4.97;;
21705;SDS011;11014;53.076;18.208;2022-08-26T15:44:52;9.45;;;4.68;;
21705;SDS011;11014;53.076;18.208;2022-08-26T15:47:22;10.05;;;4.88;;
21705;SDS011;11014;53.076;18.208;2022-08-26T15:50:05;11.38;;;5.53;;
21705;SDS011;11014;53.076;18.208;2022-08-26T15:52:43;8.55;;;5.15;;
21705;SDS011;11014;53.076;18.208;2022-08-26T15:55:36;10.88;;;5.35;;
21705;SDS011;11014;53.076;18.208;2022-08-26T15:58:05;11.45;;;5.32;;
21705;SDS011;11014;53.076;18.208;2022-08-26T16:00:34;12.48;;;5.72;;
21705;SDS011;11014;53.076;18.208;2022-08-26T16:03:02;9.57;;;5.82;;
21705;SDS011;11014;53.076;18.208;2022-08-26T16:05:36;10.75;;;5.13;;
21705;SDS011;11014;53.076;18.208;2022-08-26T16:08:06;7.63;;;5.40;;
21705;SDS011;11014;53.076;18.208;2022-08-26T16:10:36;9.38;;;5.43;;
21705;SDS011;11014;53.076;18.208;2022-08-26T16:13:14;10.02;;;5.30;;
21705;SDS011;11014;53.076;18.208;2022-08-26T16:15:43;8.27;;;5.28;;
21705;SDS011;11014;53.076;18.208;2022-08-26T16:18:13;8.75;;;5.72;;
21705;SDS011;11014;53.076;18.208;2022-08-26T16:20:47;8.40;;;5.32;;
21705;SDS011;11014;53.076;18.208;2022-08-26T16:23:37;11.15;;;5.65;;
21705;SDS011;11014;53.076;18.208;2022-08-26T16:26:06;11.07;;;6.13;;